createdAt,value
2023-04-09T00:01:58.195Z,65.13
2023-04-09T00:04:26.050Z,62.78
2023-04-09T00:06:53.209Z,63.55
2023-04-09T00:09:21.710Z,59.30
2023-04-09T00:11:48.827Z,60.53
2023-04-09T00:14:15.894Z,61.55
2023-04-09T00:16:42.867Z,61.95
2023-04-09T00:19:10.012Z,60.92
2023-04-09T00:21:37.741Z,67.35
2023-04-09T00:24:04.905Z,62.90
2023-04-09T00:26:32.210Z,70.63
2023-04-09T00:28:59.222Z,75.68
2023-04-09T00:31:26.991Z,69.22
2023-04-09T00:33:53.874Z,71.18
2023-04-09T00:36:21.310Z,67.00
2023-04-09T00:38:48.967Z,69.20
2023-04-09T00:41:15.879Z,62.03
2023-04-09T00:43:42.817Z,64.18
2023-04-09T00:46:09.728Z,67.72
2023-04-09T00:48:37.439Z,64.88
2023-04-09T00:51:04.472Z,60.72
2023-04-09T00:53:31.355Z,67.32
2023-04-09T00:55:58.680Z,65.38
2023-04-09T00:58:25.805Z,66.97
2023-04-09T01:00:52.740Z,69.93
2023-04-09T01:03:19.719Z,64.10
2023-04-09T01:05:52.816Z,64.25
2023-04-09T01:08:36.771Z,64.75
2023-04-09T01:11:28.748Z,65.43
2023-04-09T01:14:08.709Z,67.93
2023-04-09T01:16:38.146Z,65.60
2023-04-09T01:19:30.926Z,62.47
2023-04-09T01:21:59.588Z,63.85
2023-04-09T01:24:43.044Z,66.60
2023-04-09T01:27:10.343Z,67.80
2023-04-09T01:29:51.352Z,70.75
2023-04-09T01:32:20.674Z,62.90
2023-04-09T01:34:49.568Z,68.50
2023-04-09T01:37:17.236Z,69.30
2023-04-09T01:39:45.344Z,67.70
2023-04-09T01:42:15.784Z,66.72
2023-04-09T01:44:44.951Z,66.00
2023-04-09T01:47:12.842Z,66.90
2023-04-09T01:49:41.498Z,69.93
2023-04-09T01:52:09.246Z,63.78
2023-04-09T01:54:36.331Z,65.32
2023-04-09T01:57:03.401Z,68.53
2023-04-09T01:59:30.736Z,69.47
2023-04-09T02:02:14.947Z,81.63
2023-04-09T02:04:45.750Z,72.43
2023-04-09T02:07:23.891Z,69.35
2023-04-09T02:09:54.495Z,69.53
2023-04-09T02:12:24.553Z,63.83
2023-04-09T02:14:53.952Z,60.70
2023-04-09T02:17:20.992Z,62.58
2023-04-09T02:19:48.859Z,65.03
2023-04-09T02:22:17.566Z,63.42
2023-04-09T02:24:46.466Z,62.80
2023-04-09T02:27:13.488Z,65.15
2023-04-09T02:29:40.989Z,64.07
2023-04-09T02:32:08.131Z,59.85
2023-04-09T02:34:35.034Z,64.43
2023-04-09T02:37:01.855Z,56.78
2023-04-09T02:39:29.067Z,56.25
2023-04-09T02:41:56.361Z,60.90
2023-04-09T02:44:23.310Z,65.20
2023-04-09T02:46:52.337Z,68.13
2023-04-09T02:49:19.281Z,66.32
2023-04-09T02:51:46.159Z,65.97
2023-04-09T02:54:12.962Z,61.35
2023-04-09T02:56:39.782Z,63.90
2023-04-09T02:59:06.885Z,67.70
2023-04-09T03:01:34.052Z,68.75
2023-04-09T03:04:01.986Z,72.95
2023-04-09T03:06:28.999Z,67.55
2023-04-09T03:08:56.113Z,68.82
2023-04-09T03:11:23.371Z,69.60
2023-04-09T03:13:50.222Z,67.22
2023-04-09T03:16:17.395Z,70.00
2023-04-09T03:18:44.256Z,64.20
2023-04-09T03:21:12.962Z,63.50
2023-04-09T03:23:42.044Z,61.33
2023-04-09T03:26:09.244Z,64.38
2023-04-09T03:28:36.221Z,65.95
2023-04-09T03:31:03.384Z,60.58
2023-04-09T03:33:30.271Z,67.25
2023-04-09T03:35:57.506Z,68.40
2023-04-09T03:38:24.509Z,67.82
2023-04-09T03:40:51.494Z,65.90
2023-04-09T03:43:18.692Z,70.10
2023-04-09T03:45:45.813Z,62.45
2023-04-09T03:48:14.152Z,70.28
2023-04-09T03:50:41.864Z,68.47
2023-04-09T03:53:09.064Z,59.42
2023-04-09T03:55:37.402Z,60.60
2023-04-09T03:58:04.526Z,66.75
2023-04-09T04:00:31.345Z,65.65
2023-04-09T04:02:58.649Z,64.32
2023-04-09T04:05:26.337Z,68.32
2023-04-09T04:07:53.691Z,69.03
2023-04-09T04:10:20.668Z,72.57
2023-04-09T04:12:47.695Z,65.53
2023-04-09T04:15:14.894Z,64.28
2023-04-09T04:17:42.262Z,64.85
2023-04-09T04:20:09.953Z,66.43
2023-04-09T04:22:37.618Z,67.95
2023-04-09T04:25:05.458Z,66.90
2023-04-09T04:27:32.389Z,64.95
2023-04-09T04:30:00.478Z,66.35
2023-04-09T04:32:27.562Z,64.55
2023-04-09T04:34:54.862Z,63.53
2023-04-09T04:37:21.933Z,64.45
2023-04-09T04:39:49.010Z,67.43
2023-04-09T04:42:16.905Z,64.97
2023-04-09T04:44:44.576Z,66.35
2023-04-09T04:47:11.421Z,68.00
2023-04-09T04:49:38.174Z,65.03
2023-04-09T04:52:06.132Z,61.55
2023-04-09T04:54:34.175Z,61.78
2023-04-09T04:57:01.930Z,66.75
2023-04-09T04:59:29.357Z,65.35
2023-04-09T05:01:56.281Z,67.65
2023-04-09T05:04:23.696Z,64.75
2023-04-09T05:06:50.620Z,66.80
2023-04-09T05:09:17.555Z,65.63
2023-04-09T05:11:44.447Z,70.88
2023-04-09T05:14:13.393Z,67.57
2023-04-09T05:16:40.422Z,66.32
2023-04-09T05:19:07.694Z,65.00
2023-04-09T05:21:34.768Z,61.47
2023-04-09T05:24:01.750Z,58.78
2023-04-09T05:26:28.924Z,63.30
2023-04-09T05:28:55.957Z,59.53
2023-04-09T05:31:22.808Z,57.85
2023-04-09T05:33:49.773Z,62.70
2023-04-09T05:36:17.392Z,57.38
2023-04-09T05:38:45.262Z,61.85
2023-04-09T05:41:12.093Z,57.13
2023-04-09T05:43:39.011Z,62.75
2023-04-09T05:46:06.273Z,60.33
2023-04-09T05:48:36.110Z,63.08
2023-04-09T05:51:03.507Z,59.30
2023-04-09T05:53:32.849Z,59.40
2023-04-09T05:55:59.687Z,61.85
2023-04-09T05:58:28.561Z,60.55
2023-04-09T06:00:55.697Z,58.00
2023-04-09T06:03:22.945Z,52.97
2023-04-09T06:05:50.063Z,53.03
2023-04-09T06:08:16.907Z,48.17
2023-04-09T06:10:43.762Z,46.03
2023-04-09T06:13:10.969Z,47.28
2023-04-09T06:15:39.241Z,49.05
2023-04-09T06:18:06.735Z,43.08
2023-04-09T06:20:33.756Z,39.28
2023-04-09T06:23:00.655Z,38.60
2023-04-09T06:25:28.288Z,40.95
2023-04-09T06:27:55.194Z,41.08
2023-04-09T06:30:22.915Z,38.28
2023-04-09T06:32:55.014Z,35.20
2023-04-09T06:35:23.667Z,44.70
2023-04-09T06:37:50.768Z,30.80
2023-04-09T06:40:18.165Z,30.98
2023-04-09T06:42:46.440Z,27.85
2023-04-09T06:45:13.293Z,28.88
2023-04-09T06:47:40.136Z,25.70
2023-04-09T06:50:07.822Z,28.02
2023-04-09T06:52:34.609Z,28.65
2023-04-09T06:55:01.711Z,23.67
2023-04-09T06:57:28.636Z,26.65
2023-04-09T06:59:55.796Z,25.95
2023-04-09T07:02:22.984Z,26.13
2023-04-09T07:04:50.413Z,26.77
2023-04-09T07:07:17.332Z,24.75
2023-04-09T07:09:45.209Z,24.08
2023-04-09T07:12:12.366Z,23.02
2023-04-09T07:14:39.537Z,24.40
2023-04-09T07:17:06.396Z,18.15
2023-04-09T07:19:33.258Z,20.40
2023-04-09T07:22:00.299Z,20.92
2023-04-09T07:24:27.065Z,16.65
2023-04-09T07:26:54.240Z,16.52
2023-04-09T07:29:22.426Z,16.83
2023-04-09T07:31:49.390Z,15.48
2023-04-09T07:34:17.260Z,13.90
2023-04-09T07:36:44.444Z,15.38
2023-04-09T07:39:11.670Z,13.15
2023-04-09T07:41:38.516Z,15.13
2023-04-09T07:44:06.514Z,12.18
2023-04-09T07:46:33.796Z,14.05
2023-04-09T07:49:01.084Z,14.18
2023-04-09T07:51:28.435Z,13.27
2023-04-09T07:53:55.364Z,14.15
2023-04-09T07:56:22.386Z,12.15
2023-04-09T07:58:51.379Z,11.60
2023-04-09T08:01:18.600Z,13.43
2023-04-09T08:03:45.651Z,13.73
2023-04-09T08:06:12.753Z,14.40
2023-04-09T08:08:40.001Z,14.98
2023-04-09T08:11:07.465Z,13.57
2023-04-09T08:13:34.686Z,13.25
2023-04-09T08:16:05.073Z,13.85
2023-04-09T08:18:32.107Z,12.18
2023-04-09T08:20:59.225Z,14.75
2023-04-09T08:23:26.271Z,12.30
2023-04-09T08:25:53.498Z,11.90
2023-04-09T08:28:20.327Z,10.68
2023-04-09T08:30:48.715Z,12.05
2023-04-09T08:33:15.584Z,10.10
2023-04-09T08:35:42.597Z,7.40
2023-04-09T08:38:09.663Z,10.23
2023-04-09T08:40:36.854Z,10.88
2023-04-09T08:43:08.049Z,8.85
2023-04-09T08:45:35.452Z,8.77
2023-04-09T08:48:03.939Z,13.25
2023-04-09T08:50:34.337Z,10.38
2023-04-09T08:53:06.037Z,9.75
2023-04-09T08:55:37.638Z,9.50
2023-04-09T08:58:07.396Z,12.77
2023-04-09T09:00:34.544Z,12.23
2023-04-09T09:03:11.092Z,10.00
2023-04-09T09:05:46.522Z,12.10
2023-04-09T09:08:23.748Z,10.85
2023-04-09T09:10:50.735Z,13.57
2023-04-09T09:13:18.410Z,11.20
2023-04-09T09:15:47.882Z,11.10
2023-04-09T09:18:14.777Z,10.02
2023-04-09T09:20:41.952Z,9.88
2023-04-09T09:23:08.996Z,10.05
2023-04-09T09:25:40.863Z,11.63
2023-04-09T09:28:12.488Z,9.60
2023-04-09T09:30:41.006Z,12.23
2023-04-09T09:33:10.041Z,11.07
2023-04-09T09:35:54.681Z,10.80
2023-04-09T09:38:22.045Z,11.30
2023-04-09T09:40:50.667Z,10.57
2023-04-09T09:43:17.792Z,9.80
2023-04-09T09:45:46.835Z,9.98
2023-04-09T09:48:15.128Z,10.88
2023-04-09T09:50:42.800Z,10.88
2023-04-09T09:53:12.085Z,11.57
2023-04-09T09:55:43.523Z,10.68
2023-04-09T09:58:23.640Z,10.65
2023-04-09T10:00:55.044Z,10.55
2023-04-09T10:03:25.969Z,9.82
2023-04-09T10:05:54.379Z,8.27
2023-04-09T10:08:24.982Z,10.82
2023-04-09T10:10:53.226Z,12.98
2023-04-09T10:13:41.662Z,12.02
2023-04-09T10:16:09.578Z,11.30
2023-04-09T10:18:36.936Z,10.20
2023-04-09T10:21:23.519Z,10.32
2023-04-09T10:23:51.117Z,11.32
2023-04-09T10:26:22.246Z,11.63
2023-04-09T10:29:07.491Z,11.55
2023-04-09T10:32:09.207Z,11.82
2023-04-09T10:34:45.589Z,11.82
2023-04-09T10:37:21.190Z,13.30
2023-04-09T10:39:51.015Z,11.57
2023-04-09T10:42:34.017Z,11.10
2023-04-09T10:45:11.664Z,12.88
2023-04-09T10:47:43.296Z,10.73
2023-04-09T10:50:28.532Z,12.30
2023-04-09T10:52:57.982Z,13.50
2023-04-09T10:55:41.213Z,11.77
2023-04-09T11:00:42.325Z,12.52
2023-04-09T11:03:13.892Z,10.88
2023-04-09T11:05:43.286Z,9.32
2023-04-09T11:08:12.201Z,8.57
2023-04-09T11:10:44.899Z,10.15
2023-04-09T11:13:13.598Z,10.43
2023-04-09T11:15:40.981Z,11.60
2023-04-09T11:18:10.176Z,9.13
2023-04-09T11:20:37.663Z,11.48
2023-04-09T11:23:05.820Z,11.20
2023-04-09T11:25:35.122Z,9.52
2023-04-09T11:28:04.637Z,8.02
2023-04-09T11:30:32.046Z,9.32
2023-04-09T11:32:59.066Z,10.30
2023-04-09T11:35:26.281Z,11.43
2023-04-09T11:37:54.874Z,11.10
2023-04-09T11:40:24.494Z,11.20
2023-04-09T11:42:53.624Z,10.57
2023-04-09T11:45:26.666Z,10.60
2023-04-09T11:50:21.898Z,10.20
2023-04-09T11:52:50.384Z,11.77
2023-04-09T11:55:28.946Z,11.80
2023-04-09T11:58:02.099Z,11.57
2023-04-09T12:00:29.932Z,13.48
2023-04-09T12:03:10.140Z,11.05
2023-04-09T12:05:41.070Z,9.13
2023-04-09T12:08:09.258Z,10.30
2023-04-09T12:10:39.140Z,9.85
2023-04-09T12:13:10.120Z,9.40
2023-04-09T12:15:38.899Z,10.73
2023-04-09T12:18:10.081Z,9.90
2023-04-09T12:20:42.419Z,9.88
2023-04-09T12:23:11.237Z,12.30
2023-04-09T12:25:41.007Z,10.80
2023-04-09T12:28:10.456Z,11.00
2023-04-09T12:30:38.248Z,9.57
2023-04-09T12:33:05.750Z,9.27
2023-04-09T12:35:34.874Z,9.63
2023-04-09T12:38:01.994Z,8.43
2023-04-09T12:40:29.167Z,9.82
2023-04-09T12:42:56.866Z,10.07
2023-04-09T12:45:23.787Z,9.57
2023-04-09T12:47:51.492Z,10.00
2023-04-09T12:50:18.802Z,8.85
2023-04-09T12:52:46.415Z,8.27
2023-04-09T12:55:14.630Z,9.65
2023-04-09T12:57:44.964Z,8.50
2023-04-09T13:00:12.707Z,7.95
2023-04-09T13:02:39.919Z,7.95
2023-04-09T13:05:07.539Z,8.45
2023-04-09T13:07:34.770Z,9.88
2023-04-09T13:10:02.269Z,7.18
2023-04-09T13:12:29.351Z,9.40
2023-04-09T13:14:56.747Z,9.25
2023-04-09T13:17:23.822Z,7.93
2023-04-09T13:19:51.939Z,7.20
2023-04-09T13:22:19.130Z,8.35
2023-04-09T13:24:46.151Z,7.05
2023-04-09T13:27:13.027Z,7.22
2023-04-09T13:29:40.230Z,6.72
2023-04-09T13:32:07.878Z,6.82
2023-04-09T13:34:35.789Z,7.50
2023-04-09T13:37:03.825Z,7.60
2023-04-09T13:39:31.026Z,6.53
2023-04-09T13:41:57.946Z,10.23
2023-04-09T13:44:25.653Z,6.45
2023-04-09T13:46:52.937Z,9.23
2023-04-09T13:49:19.968Z,7.55
2023-04-09T13:51:47.052Z,7.05
2023-04-09T13:54:13.889Z,5.95
2023-04-09T13:56:42.487Z,5.90
2023-04-09T13:59:09.432Z,5.93
2023-04-09T14:01:36.504Z,6.22
2023-04-09T14:04:03.808Z,7.32
2023-04-09T14:06:31.583Z,8.70
2023-04-09T14:08:58.467Z,5.82
2023-04-09T14:11:25.851Z,7.03
2023-04-09T14:13:53.309Z,5.75
2023-04-09T14:16:20.519Z,6.00
2023-04-09T14:18:47.447Z,6.13
2023-04-09T14:21:14.544Z,6.53
2023-04-09T14:23:42.269Z,5.88
2023-04-09T14:26:09.185Z,6.68
2023-04-09T14:28:36.672Z,7.13
2023-04-09T14:31:05.100Z,6.03
2023-04-09T14:33:32.062Z,6.43
2023-04-09T14:35:59.174Z,5.80
2023-04-09T14:38:26.816Z,6.70
2023-04-09T14:40:53.886Z,6.80
2023-04-09T14:43:20.779Z,6.53
2023-04-09T14:45:47.627Z,6.68
2023-04-09T14:48:15.279Z,6.15
2023-04-09T14:50:43.148Z,6.68
2023-04-09T14:53:10.441Z,4.97
2023-04-09T14:55:38.094Z,5.28
2023-04-09T14:58:07.250Z,4.30
2023-04-09T15:00:35.039Z,7.57
2023-04-09T15:03:02.794Z,5.05
2023-04-09T15:05:29.778Z,4.95
2023-04-09T15:07:57.742Z,4.97
2023-04-09T15:10:24.920Z,6.20
2023-04-09T15:12:52.561Z,5.15
2023-04-09T15:15:22.063Z,5.40
2023-04-09T15:17:49.196Z,5.15
2023-04-09T15:20:17.530Z,6.57
2023-04-09T15:22:44.529Z,4.20
2023-04-09T15:25:13.091Z,3.55
2023-04-09T15:27:42.038Z,4.95
2023-04-09T15:30:09.376Z,5.45
2023-04-09T15:32:36.296Z,5.80
2023-04-09T15:35:03.258Z,4.00
2023-04-09T15:37:30.133Z,6.10
2023-04-09T15:39:57.222Z,5.78
2023-04-09T15:42:24.054Z,5.70
2023-04-09T15:44:51.066Z,5.60
2023-04-09T15:47:18.700Z,5.05
2023-04-09T15:49:59.185Z,7.28
2023-04-09T15:52:27.604Z,5.78
2023-04-09T15:54:54.748Z,5.00
2023-04-09T15:57:22.526Z,5.78
2023-04-09T15:59:49.408Z,6.25
2023-04-09T16:02:16.340Z,6.68
2023-04-09T16:04:43.609Z,6.03
2023-04-09T16:07:16.030Z,8.65
2023-04-09T16:09:43.187Z,6.70
2023-04-09T16:12:10.091Z,6.15
2023-04-09T16:14:37.276Z,4.78
2023-04-09T16:17:04.179Z,5.78
2023-04-09T16:19:31.055Z,6.78
2023-04-09T16:21:58.222Z,6.93
2023-04-09T16:24:25.360Z,8.35
2023-04-09T16:26:52.508Z,7.00
2023-04-09T16:29:19.397Z,7.78
2023-04-09T16:31:46.380Z,7.65
2023-04-09T16:34:13.651Z,7.18
2023-04-09T16:36:41.621Z,6.22
2023-04-09T16:39:11.067Z,7.38
2023-04-09T16:41:38.646Z,6.60
2023-04-09T16:44:06.644Z,6.45
2023-04-09T16:46:34.356Z,6.75
2023-04-09T16:49:01.241Z,6.35
2023-04-09T16:51:28.363Z,5.95
2023-04-09T16:53:55.197Z,5.97
2023-04-09T16:56:22.014Z,5.93
2023-04-09T16:58:49.620Z,5.43
2023-04-09T17:01:16.765Z,6.60
2023-04-09T17:03:43.750Z,7.35
2023-04-09T17:06:10.709Z,9.65
2023-04-09T17:08:37.538Z,7.35
2023-04-09T17:11:04.843Z,7.40
2023-04-09T17:13:34.232Z,6.60
2023-04-09T17:16:02.800Z,6.50
2023-04-09T17:18:30.269Z,7.57
2023-04-09T17:20:57.194Z,8.55
2023-04-09T17:23:24.467Z,7.00
2023-04-09T17:25:51.431Z,6.95
2023-04-09T17:28:19.089Z,8.18
2023-04-09T17:30:46.330Z,8.02
2023-04-09T17:33:13.769Z,6.75
2023-04-09T17:35:42.906Z,7.53
2023-04-09T17:38:12.686Z,7.45
2023-04-09T17:40:39.945Z,7.50
2023-04-09T17:43:08.198Z,5.80
2023-04-09T17:45:35.110Z,6.90
2023-04-09T17:48:03.352Z,8.55
2023-04-09T17:50:30.206Z,6.40
2023-04-09T17:52:57.294Z,5.78
2023-04-09T17:55:24.325Z,6.57
2023-04-09T17:57:51.496Z,12.15
2023-04-09T18:00:19.260Z,8.50
2023-04-09T18:02:46.997Z,7.47
2023-04-09T18:05:14.144Z,6.32
2023-04-09T18:07:41.296Z,5.95
2023-04-09T18:10:08.379Z,6.20
2023-04-09T18:12:35.647Z,7.60
2023-04-09T18:15:03.723Z,7.00
2023-04-09T18:17:31.517Z,7.82
2023-04-09T18:20:00.572Z,5.55
2023-04-09T18:22:27.885Z,6.03
2023-04-09T18:24:56.392Z,8.15
2023-04-09T18:27:23.328Z,7.15
2023-04-09T18:29:50.896Z,6.20
2023-04-09T18:32:19.734Z,7.97
2023-04-09T18:34:48.071Z,6.97
2023-04-09T18:37:15.755Z,9.38
2023-04-09T18:39:42.618Z,7.90
2023-04-09T18:42:10.346Z,7.05
2023-04-09T18:44:37.801Z,7.32
2023-04-09T18:47:05.910Z,8.23
2023-04-09T18:49:33.725Z,6.50
2023-04-09T18:52:00.933Z,8.30
2023-04-09T18:54:28.412Z,7.60
2023-04-09T18:56:57.332Z,7.60
2023-04-09T18:59:24.547Z,9.32
2023-04-09T19:01:51.773Z,6.72
2023-04-09T19:04:28.607Z,22.92
2023-04-09T19:06:57.609Z,8.35
2023-04-09T19:09:24.425Z,8.38
2023-04-09T19:11:51.718Z,8.15
2023-04-09T19:14:20.236Z,8.02
2023-04-09T19:16:47.471Z,6.30
2023-04-09T19:19:14.429Z,10.60
2023-04-09T19:21:42.174Z,9.05
2023-04-09T19:24:11.080Z,7.68
2023-04-09T19:26:39.851Z,9.00
2023-04-09T19:29:08.469Z,8.52
2023-04-09T19:31:37.119Z,11.27
2023-04-09T19:34:06.297Z,10.90
2023-04-09T19:36:34.102Z,7.70
2023-04-09T19:39:01.294Z,9.95
2023-04-09T19:41:28.560Z,9.98
2023-04-09T19:43:56.010Z,11.30
2023-04-09T19:46:22.968Z,10.82
2023-04-09T19:48:49.893Z,9.90
2023-04-09T19:51:18.026Z,10.30
2023-04-09T19:53:47.347Z,10.02
2023-04-09T19:56:14.484Z,11.02
2023-04-09T19:58:43.158Z,11.30
2023-04-09T20:01:10.173Z,13.98
2023-04-09T20:03:37.335Z,10.07
2023-04-09T20:06:13.841Z,11.43
2023-04-09T20:08:41.031Z,12.35
2023-04-09T20:11:07.984Z,12.95
2023-04-09T20:13:35.080Z,11.85
2023-04-09T20:16:03.465Z,11.55
2023-04-09T20:18:30.375Z,11.15
2023-04-09T20:20:57.424Z,10.65
2023-04-09T20:23:24.486Z,11.18
2023-04-09T20:25:55.441Z,10.30
2023-04-09T20:28:23.056Z,14.05
2023-04-09T20:30:50.961Z,11.88
2023-04-09T20:33:18.857Z,11.32
2023-04-09T20:35:46.522Z,10.95
2023-04-09T20:38:13.647Z,10.73
2023-04-09T20:40:40.910Z,9.65
2023-04-09T20:43:07.858Z,10.55
2023-04-09T20:45:36.571Z,9.80
2023-04-09T20:48:03.712Z,8.38
2023-04-09T20:50:31.526Z,10.23
2023-04-09T20:52:59.191Z,11.25
2023-04-09T20:55:26.744Z,11.93
2023-04-09T20:57:58.608Z,10.15
2023-04-09T21:00:25.914Z,11.68
2023-04-09T21:02:52.994Z,12.77
2023-04-09T21:05:24.015Z,10.07
2023-04-09T21:07:52.501Z,12.90
2023-04-09T21:10:19.860Z,11.57
2023-04-09T21:12:46.918Z,10.95
2023-04-09T21:15:13.971Z,10.57
2023-04-09T21:17:41.321Z,12.27
2023-04-09T21:20:09.061Z,10.27
2023-04-09T21:22:36.128Z,12.35
2023-04-09T21:25:04.518Z,11.60
2023-04-09T21:27:31.625Z,12.38
2023-04-09T21:29:58.892Z,11.23
2023-04-09T21:32:26.189Z,9.88
2023-04-09T21:34:54.135Z,13.30
2023-04-09T21:37:21.487Z,12.60
2023-04-09T21:39:49.082Z,10.10
2023-04-09T21:42:16.216Z,12.23
2023-04-09T21:44:43.135Z,11.02
2023-04-09T21:47:12.232Z,9.95
2023-04-09T21:49:40.868Z,12.82
2023-04-09T21:52:14.514Z,12.07
2023-04-09T21:54:42.266Z,10.35
2023-04-09T21:57:09.893Z,11.35
2023-04-09T21:59:37.641Z,12.40
2023-04-09T22:02:07.834Z,63.70
2023-04-09T22:04:38.079Z,43.35
2023-04-09T22:07:05.229Z,12.73
2023-04-09T22:09:32.354Z,14.45
2023-04-09T22:11:59.657Z,14.25
2023-04-09T22:14:29.557Z,11.95
2023-04-09T22:16:58.283Z,13.20
2023-04-09T22:19:26.182Z,11.50
2023-04-09T22:21:53.793Z,13.32
2023-04-09T22:24:26.888Z,11.85
2023-04-09T22:26:54.493Z,12.88
2023-04-09T22:29:22.433Z,14.38
2023-04-09T22:31:49.217Z,19.70
2023-04-09T22:34:21.348Z,17.63
2023-04-09T22:39:16.172Z,15.60
2023-04-09T22:41:43.368Z,14.90
2023-04-09T22:44:10.871Z,16.75
2023-04-09T22:46:38.133Z,14.82
2023-04-09T22:49:06.319Z,19.30
2023-04-09T22:51:36.506Z,15.40
2023-04-09T22:54:03.605Z,18.08
2023-04-09T22:56:32.212Z,17.50
2023-04-09T22:58:59.506Z,16.27
2023-04-09T23:01:27.091Z,13.40
2023-04-09T23:03:54.634Z,14.65
2023-04-09T23:06:22.688Z,19.13
2023-04-09T23:08:50.258Z,18.23
2023-04-09T23:11:17.325Z,17.35
2023-04-09T23:13:44.744Z,16.70
2023-04-09T23:16:11.754Z,18.38
2023-04-09T23:18:38.682Z,18.10
2023-04-09T23:21:09.431Z,22.83
2023-04-09T23:23:40.223Z,19.88
2023-04-09T23:26:07.299Z,15.88
2023-04-09T23:28:34.142Z,19.63
2023-04-09T23:31:01.259Z,16.80
2023-04-09T23:33:28.109Z,16.73
2023-04-09T23:35:55.434Z,16.63
2023-04-09T23:38:22.761Z,16.45
2023-04-09T23:40:50.271Z,15.82
2023-04-09T23:43:18.468Z,17.20
2023-04-09T23:45:45.326Z,18.35
2023-04-09T23:48:12.849Z,19.92
2023-04-09T23:50:41.246Z,17.85
2023-04-09T23:53:08.790Z,18.77
2023-04-09T23:55:41.118Z,15.80
2023-04-09T23:58:08.540Z,11.88
